sensor_id;sensor_type;location;lat;lon;timestamp;temperature;humidity
5796;DHT22;2924;51.458;7.046;2022-11-03T00:00:28;11.00;99.90
5796;DHT22;2924;51.458;7.046;2022-11-03T00:02:54;11.00;99.90
5796;DHT22;2924;51.458;7.046;2022-11-03T00:05:19;11.10;99.90
5796;DHT22;2924;51.458;7.046;2022-11-03T00:08:03;11.10;99.90
5796;DHT22;2924;51.458;7.046;2022-11-03T00:10:30;11.20;99.90
5796;DHT22;2924;51.458;7.046;2022-11-03T00:12:55;11.20;99.90
5796;DHT22;2924;51.458;7.046;2022-11-03T00:15:21;11.20;99.90
5796;DHT22;2924;51.458;7.046;2022-11-03T00:17:47;11.20;99.90
5796;DHT22;2924;51.458;7.046;2022-11-03T00:20:13;11.30;99.90
5796;DHT22;2924;51.458;7.046;2022-11-03T00:22:38;11.20;99.90
5796;DHT22;2924;51.458;7.046;2022-11-03T00:25:04;11.20;99.90
5796;DHT22;2924;51.458;7.046;2022-11-03T00:27:30;11.30;99.90
5796;DHT22;2924;51.458;7.046;2022-11-03T00:29:56;11.30;99.90
5796;DHT22;2924;51.458;7.046;2022-11-03T00:32:22;11.30;99.90
5796;DHT22;2924;51.458;7.046;2022-11-03T00:34:47;11.30;99.90
5796;DHT22;2924;51.458;7.046;2022-11-03T00:37:13;11.30;99.90
5796;DHT22;2924;51.458;7.046;2022-11-03T00:39:38;11.40;99.90
5796;DHT22;2924;51.458;7.046;2022-11-03T00:42:04;11.40;99.90
5796;DHT22;2924;51.458;7.046;2022-11-03T00:44:30;11.30;99.90
5796;DHT22;2924;51.458;7.046;2022-11-03T00:46:55;11.40;99.90
5796;DHT22;2924;51.458;7.046;2022-11-03T00:49:21;11.40;99.90
5796;DHT22;2924;51.458;7.046;2022-11-03T00:51:46;11.40;99.90
5796;DHT22;2924;51.458;7.046;2022-11-03T00:54:12;11.40;99.90
5796;DHT22;2924;51.458;7.046;2022-11-03T00:56:40;11.40;99.90
5796;DHT22;2924;51.458;7.046;2022-11-03T00:59:07;11.40;99.90
5796;DHT22;2924;51.458;7.046;2022-11-03T01:01:42;11.30;99.90
5796;DHT22;2924;51.458;7.046;2022-11-03T01:04:08;11.30;99.90
5796;DHT22;2924;51.458;7.046;2022-11-03T01:06:55;11.30;99.90
5796;DHT22;2924;51.458;7.046;2022-11-03T01:09:32;11.30;99.90
5796;DHT22;2924;51.458;7.046;2022-11-03T01:12:05;11.30;99.90
5796;DHT22;2924;51.458;7.046;2022-11-03T01:16:59;11.20;99.90
5796;DHT22;2924;51.458;7.046;2022-11-03T01:19:25;11.10;99.90
5796;DHT22;2924;51.458;7.046;2022-11-03T01:21:54;11.20;99.90
5796;DHT22;2924;51.458;7.046;2022-11-03T01:24:20;11.10;99.90
5796;DHT22;2924;51.458;7.046;2022-11-03T01:26:46;11.00;99.90
5796;DHT22;2924;51.458;7.046;2022-11-03T01:29:12;11.00;99.90
5796;DHT22;2924;51.458;7.046;2022-11-03T01:31:37;11.00;99.90
5796;DHT22;2924;51.458;7.046;2022-11-03T01:34:03;10.90;99.90
5796;DHT22;2924;51.458;7.046;2022-11-03T01:36:29;10.80;99.90
5796;DHT22;2924;51.458;7.046;2022-11-03T01:38:55;10.80;99.90
5796;DHT22;2924;51.458;7.046;2022-11-03T01:41:26;10.70;99.90
5796;DHT22;2924;51.458;7.046;2022-11-03T01:46:43;10.90;99.90
5796;DHT22;2924;51.458;7.046;2022-11-03T01:49:18;10.90;99.90
5796;DHT22;2924;51.458;7.046;2022-11-03T01:51:49;10.80;99.90
5796;DHT22;2924;51.458;7.046;2022-11-03T01:54:20;10.80;99.90
5796;DHT22;2924;51.458;7.046;2022-11-03T01:56:47;10.70;99.90
5796;DHT22;2924;51.458;7.046;2022-11-03T01:59:15;10.80;99.90
5796;DHT22;2924;51.458;7.046;2022-11-03T02:01:42;10.70;99.90
5796;DHT22;2924;51.458;7.046;2022-11-03T02:04:20;10.70;99.90
5796;DHT22;2924;51.458;7.046;2022-11-03T02:06:53;10.70;99.90
5796;DHT22;2924;51.458;7.046;2022-11-03T02:09:21;10.70;99.90
5796;DHT22;2924;51.458;7.046;2022-11-03T02:11:46;10.70;99.90
5796;DHT22;2924;51.458;7.046;2022-11-03T02:14:30;10.70;99.90
5796;DHT22;2924;51.458;7.046;2022-11-03T02:17:02;10.70;99.90
5796;DHT22;2924;51.458;7.046;2022-11-03T02:28:15;10.80;99.90
5796;DHT22;2924;51.458;7.046;2022-11-03T02:31:00;10.80;99.90
5796;DHT22;2924;51.458;7.046;2022-11-03T02:33:45;10.70;99.90
5796;DHT22;2924;51.458;7.046;2022-11-03T02:36:34;10.80;99.90
5796;DHT22;2924;51.458;7.046;2022-11-03T02:39:34;10.80;99.90
5796;DHT22;2924;51.458;7.046;2022-11-03T02:42:02;10.80;99.90
5796;DHT22;2924;51.458;7.046;2022-11-03T02:44:31;10.70;99.90
5796;DHT22;2924;51.458;7.046;2022-11-03T02:47:00;10.80;99.90
5796;DHT22;2924;51.458;7.046;2022-11-03T02:49:27;10.70;99.90
5796;DHT22;2924;51.458;7.046;2022-11-03T02:52:04;10.70;99.90
5796;DHT22;2924;51.458;7.046;2022-11-03T02:54:43;10.80;99.90
5796;DHT22;2924;51.458;7.046;2022-11-03T02:57:20;10.80;99.90
5796;DHT22;2924;51.458;7.046;2022-11-03T02:59:54;10.90;99.90
5796;DHT22;2924;51.458;7.046;2022-11-03T03:02:25;10.80;99.90
5796;DHT22;2924;51.458;7.046;2022-11-03T03:05:00;10.80;99.90
5796;DHT22;2924;51.458;7.046;2022-11-03T03:07:36;10.80;99.90
5796;DHT22;2924;51.458;7.046;2022-11-03T03:12:31;10.80;99.90
5796;DHT22;2924;51.458;7.046;2022-11-03T03:15:00;10.80;99.90
5796;DHT22;2924;51.458;7.046;2022-11-03T03:20:33;10.80;99.90
5796;DHT22;2924;51.458;7.046;2022-11-03T03:23:07;10.80;99.90
5796;DHT22;2924;51.458;7.046;2022-11-03T03:25:45;10.90;99.90
5796;DHT22;2924;51.458;7.046;2022-11-03T03:28:29;11.00;99.90
5796;DHT22;2924;51.458;7.046;2022-11-03T03:30:58;10.90;99.90
5796;DHT22;2924;51.458;7.046;2022-11-03T03:33:25;10.90;99.90
5796;DHT22;2924;51.458;7.046;2022-11-03T03:35:53;11.00;99.90
5796;DHT22;2924;51.458;7.046;2022-11-03T03:38:29;10.90;99.90
5796;DHT22;2924;51.458;7.046;2022-11-03T03:40:56;10.90;99.90
5796;DHT22;2924;51.458;7.046;2022-11-03T03:43:25;10.90;99.90
5796;DHT22;2924;51.458;7.046;2022-11-03T03:45:56;11.00;99.90
5796;DHT22;2924;51.458;7.046;2022-11-03T03:48:23;11.00;99.90
5796;DHT22;2924;51.458;7.046;2022-11-03T03:50:49;11.00;99.90
5796;DHT22;2924;51.458;7.046;2022-11-03T03:53:17;11.00;99.90
5796;DHT22;2924;51.458;7.046;2022-11-03T03:55:49;11.00;99.90
5796;DHT22;2924;51.458;7.046;2022-11-03T03:58:15;11.00;99.90
5796;DHT22;2924;51.458;7.046;2022-11-03T04:00:41;11.00;99.90
5796;DHT22;2924;51.458;7.046;2022-11-03T04:03:33;11.20;99.90
5796;DHT22;2924;51.458;7.046;2022-11-03T04:05:59;11.10;99.90
5796;DHT22;2924;51.458;7.046;2022-11-03T04:08:24;11.10;99.90
5796;DHT22;2924;51.458;7.046;2022-11-03T04:10:50;11.10;99.90
5796;DHT22;2924;51.458;7.046;2022-11-03T04:13:34;11.10;99.90
5796;DHT22;2924;51.458;7.046;2022-11-03T04:16:26;11.10;99.90
5796;DHT22;2924;51.458;7.046;2022-11-03T04:19:11;11.00;99.90
5796;DHT22;2924;51.458;7.046;2022-11-03T04:21:55;11.10;99.90
5796;DHT22;2924;51.458;7.046;2022-11-03T04:24:46;11.20;99.90
5796;DHT22;2924;51.458;7.046;2022-11-03T04:27:30;11.20;99.90
5796;DHT22;2924;51.458;7.046;2022-11-03T04:30:20;11.20;99.90
5796;DHT22;2924;51.458;7.046;2022-11-03T04:32:48;11.30;99.90
5796;DHT22;2924;51.458;7.046;2022-11-03T04:35:21;11.20;99.90
5796;DHT22;2924;51.458;7.046;2022-11-03T04:37:54;11.30;99.90
5796;DHT22;2924;51.458;7.046;2022-11-03T04:40:22;11.30;99.90
5796;DHT22;2924;51.458;7.046;2022-11-03T04:42:47;11.30;99.90
5796;DHT22;2924;51.458;7.046;2022-11-03T04:45:31;11.30;99.90
5796;DHT22;2924;51.458;7.046;2022-11-03T04:48:00;11.30;99.90
5796;DHT22;2924;51.458;7.046;2022-11-03T04:50:27;11.30;99.90
5796;DHT22;2924;51.458;7.046;2022-11-03T04:52:57;11.30;99.90
5796;DHT22;2924;51.458;7.046;2022-11-03T04:55:24;11.20;99.90
5796;DHT22;2924;51.458;7.046;2022-11-03T04:57:58;11.20;99.90
5796;DHT22;2924;51.458;7.046;2022-11-03T05:00:24;11.20;99.90
5796;DHT22;2924;51.458;7.046;2022-11-03T05:02:51;11.20;99.90
5796;DHT22;2924;51.458;7.046;2022-11-03T05:05:22;11.10;99.90
5796;DHT22;2924;51.458;7.046;2022-11-03T05:07:51;11.10;99.90
5796;DHT22;2924;51.458;7.046;2022-11-03T05:10:20;11.10;99.90
5796;DHT22;2924;51.458;7.046;2022-11-03T05:12:46;11.20;99.90
5796;DHT22;2924;51.458;7.046;2022-11-03T05:15:42;11.20;99.90
5796;DHT22;2924;51.458;7.046;2022-11-03T05:18:24;11.20;99.90
5796;DHT22;2924;51.458;7.046;2022-11-03T05:21:02;11.20;99.90
5796;DHT22;2924;51.458;7.046;2022-11-03T05:23:31;11.20;99.90
5796;DHT22;2924;51.458;7.046;2022-11-03T05:26:02;11.20;99.90
5796;DHT22;2924;51.458;7.046;2022-11-03T05:28:32;11.30;99.90
5796;DHT22;2924;51.458;7.046;2022-11-03T05:30:59;11.30;99.90
5796;DHT22;2924;51.458;7.046;2022-11-03T05:33:34;11.30;99.90
5796;DHT22;2924;51.458;7.046;2022-11-03T05:36:06;11.30;99.90
5796;DHT22;2924;51.458;7.046;2022-11-03T05:38:32;11.30;99.90
5796;DHT22;2924;51.458;7.046;2022-11-03T05:40:59;11.30;99.90
5796;DHT22;2924;51.458;7.046;2022-11-03T05:43:27;11.40;99.90
5796;DHT22;2924;51.458;7.046;2022-11-03T05:45:56;11.30;99.90
5796;DHT22;2924;51.458;7.046;2022-11-03T05:48:30;11.30;99.90
5796;DHT22;2924;51.458;7.046;2022-11-03T05:50:58;11.40;99.90
5796;DHT22;2924;51.458;7.046;2022-11-03T05:53:36;11.40;99.90
5796;DHT22;2924;51.458;7.046;2022-11-03T05:56:04;11.50;99.90
5796;DHT22;2924;51.458;7.046;2022-11-03T05:58:36;11.50;99.90
5796;DHT22;2924;51.458;7.046;2022-11-03T06:03:43;11.50;99.90
5796;DHT22;2924;51.458;7.046;2022-11-03T06:06:51;11.50;99.90
5796;DHT22;2924;51.458;7.046;2022-11-03T06:09:16;11.50;99.90
5796;DHT22;2924;51.458;7.046;2022-11-03T06:11:43;11.50;99.90
5796;DHT22;2924;51.458;7.046;2022-11-03T06:14:29;11.50;99.90
5796;DHT22;2924;51.458;7.046;2022-11-03T06:16:58;11.50;99.90
5796;DHT22;2924;51.458;7.046;2022-11-03T06:19:30;11.60;99.90
5796;DHT22;2924;51.458;7.046;2022-11-03T06:22:03;11.60;99.90
5796;DHT22;2924;51.458;7.046;2022-11-03T06:24:31;11.70;99.90
5796;DHT22;2924;51.458;7.046;2022-11-03T06:26:58;11.60;99.90
5796;DHT22;2924;51.458;7.046;2022-11-03T06:29:24;11.70;99.90
5796;DHT22;2924;51.458;7.046;2022-11-03T06:31:53;11.60;99.90
5796;DHT22;2924;51.458;7.046;2022-11-03T06:34:31;11.60;99.90
5796;DHT22;2924;51.458;7.046;2022-11-03T06:36:58;11.70;99.90
5796;DHT22;2924;51.458;7.046;2022-11-03T06:39:26;11.70;99.90
5796;DHT22;2924;51.458;7.046;2022-11-03T06:41:52;11.80;99.90
5796;DHT22;2924;51.458;7.046;2022-11-03T06:44:22;11.70;99.90
5796;DHT22;2924;51.458;7.046;2022-11-03T06:46:49;11.70;99.90
5796;DHT22;2924;51.458;7.046;2022-11-03T06:49:27;11.80;99.90
5796;DHT22;2924;51.458;7.046;2022-11-03T06:51:55;11.70;99.90
5796;DHT22;2924;51.458;7.046;2022-11-03T06:54:20;11.70;99.90
5796;DHT22;2924;51.458;7.046;2022-11-03T06:56:46;11.70;99.90
5796;DHT22;2924;51.458;7.046;2022-11-03T06:59:13;11.80;99.90
5796;DHT22;2924;51.458;7.046;2022-11-03T07:01:40;11.80;99.90
5796;DHT22;2924;51.458;7.046;2022-11-03T07:04:19;11.70;99.90
5796;DHT22;2924;51.458;7.046;2022-11-03T07:06:45;11.80;99.90
5796;DHT22;2924;51.458;7.046;2022-11-03T07:09:15;11.80;99.90
5796;DHT22;2924;51.458;7.046;2022-11-03T07:11:47;11.80;99.90
5796;DHT22;2924;51.458;7.046;2022-11-03T07:14:37;11.80;99.90
5796;DHT22;2924;51.458;7.046;2022-11-03T07:17:04;11.80;99.90
5796;DHT22;2924;51.458;7.046;2022-11-03T07:19:35;11.80;99.90
5796;DHT22;2924;51.458;7.046;2022-11-03T07:22:10;11.90;99.90
5796;DHT22;2924;51.458;7.046;2022-11-03T07:24:40;11.90;99.90
5796;DHT22;2924;51.458;7.046;2022-11-03T07:27:22;11.90;99.90
5796;DHT22;2924;51.458;7.046;2022-11-03T07:29:50;11.90;99.90
5796;DHT22;2924;51.458;7.046;2022-11-03T07:32:28;11.90;99.90
5796;DHT22;2924;51.458;7.046;2022-11-03T07:35:03;11.90;99.90
5796;DHT22;2924;51.458;7.046;2022-11-03T07:37:29;12.00;99.90
5796;DHT22;2924;51.458;7.046;2022-11-03T07:39:56;12.00;99.90
5796;DHT22;2924;51.458;7.046;2022-11-03T07:42:25;12.10;99.90
5796;DHT22;2924;51.458;7.046;2022-11-03T07:44:52;12.20;99.90
5796;DHT22;2924;51.458;7.046;2022-11-03T07:47:23;12.20;99.90
5796;DHT22;2924;51.458;7.046;2022-11-03T07:49:53;12.30;99.90
5796;DHT22;2924;51.458;7.046;2022-11-03T07:52:21;12.50;99.90
5796;DHT22;2924;51.458;7.046;2022-11-03T07:54:50;12.60;99.90
5796;DHT22;2924;51.458;7.046;2022-11-03T07:57:25;12.90;99.90
5796;DHT22;2924;51.458;7.046;2022-11-03T07:59:54;13.20;99.90
5796;DHT22;2924;51.458;7.046;2022-11-03T08:02:30;13.40;99.90
5796;DHT22;2924;51.458;7.046;2022-11-03T08:04:57;13.60;99.90
5796;DHT22;2924;51.458;7.046;2022-11-03T08:07:23;13.70;99.90
5796;DHT22;2924;51.458;7.046;2022-11-03T08:09:49;13.60;99.90
5796;DHT22;2924;51.458;7.046;2022-11-03T08:12:15;13.70;99.90
5796;DHT22;2924;51.458;7.046;2022-11-03T08:14:40;13.80;99.90
5796;DHT22;2924;51.458;7.046;2022-11-03T08:17:06;13.90;99.90
5796;DHT22;2924;51.458;7.046;2022-11-03T08:19:32;14.00;99.90
5796;DHT22;2924;51.458;7.046;2022-11-03T08:21:57;14.10;99.90
5796;DHT22;2924;51.458;7.046;2022-11-03T08:24:23;14.10;99.90
5796;DHT22;2924;51.458;7.046;2022-11-03T08:26:49;14.00;99.90
5796;DHT22;2924;51.458;7.046;2022-11-03T08:29:14;14.00;99.90
5796;DHT22;2924;51.458;7.046;2022-11-03T08:31:42;13.90;99.90
5796;DHT22;2924;51.458;7.046;2022-11-03T08:34:08;13.80;99.90
5796;DHT22;2924;51.458;7.046;2022-11-03T08:36:35;13.70;99.90
5796;DHT22;2924;51.458;7.046;2022-11-03T08:39:02;13.70;99.90
5796;DHT22;2924;51.458;7.046;2022-11-03T08:41:28;13.70;99.90
5796;DHT22;2924;51.458;7.046;2022-11-03T08:43:54;13.70;99.90
5796;DHT22;2924;51.458;7.046;2022-11-03T08:46:19;13.70;99.90
5796;DHT22;2924;51.458;7.046;2022-11-03T08:48:45;13.80;99.90
5796;DHT22;2924;51.458;7.046;2022-11-03T08:51:11;13.80;99.90
5796;DHT22;2924;51.458;7.046;2022-11-03T08:53:38;13.80;99.90
5796;DHT22;2924;51.458;7.046;2022-11-03T08:56:05;13.90;99.90
5796;DHT22;2924;51.458;7.046;2022-11-03T08:58:31;13.90;99.90
5796;DHT22;2924;51.458;7.046;2022-11-03T09:00:56;13.90;99.90
5796;DHT22;2924;51.458;7.046;2022-11-03T09:03:22;14.00;99.90
5796;DHT22;2924;51.458;7.046;2022-11-03T09:05:48;14.10;99.90
5796;DHT22;2924;51.458;7.046;2022-11-03T09:08:14;14.20;99.90
5796;DHT22;2924;51.458;7.046;2022-11-03T09:10:40;14.30;99.90
5796;DHT22;2924;51.458;7.046;2022-11-03T09:13:05;14.30;99.90
5796;DHT22;2924;51.458;7.046;2022-11-03T09:15:31;14.30;99.90
5796;DHT22;2924;51.458;7.046;2022-11-03T09:17:57;14.40;99.90
5796;DHT22;2924;51.458;7.046;2022-11-03T09:20:23;14.40;99.90
5796;DHT22;2924;51.458;7.046;2022-11-03T09:22:49;14.40;99.90
5796;DHT22;2924;51.458;7.046;2022-11-03T09:25:15;14.40;99.90
5796;DHT22;2924;51.458;7.046;2022-11-03T09:27:40;14.40;99.90
5796;DHT22;2924;51.458;7.046;2022-11-03T09:30:06;14.50;99.90
5796;DHT22;2924;51.458;7.046;2022-11-03T09:32:33;14.60;99.90
5796;DHT22;2924;51.458;7.046;2022-11-03T09:34:58;14.80;99.90
5796;DHT22;2924;51.458;7.046;2022-11-03T09:37:24;15.00;99.90
5796;DHT22;2924;51.458;7.046;2022-11-03T09:39:50;15.10;99.90
5796;DHT22;2924;51.458;7.046;2022-11-03T09:42:16;15.10;99.90
5796;DHT22;2924;51.458;7.046;2022-11-03T09:44:43;15.10;99.90
5796;DHT22;2924;51.458;7.046;2022-11-03T09:47:22;15.20;99.90
5796;DHT22;2924;51.458;7.046;2022-11-03T09:49:48;15.20;99.90
5796;DHT22;2924;51.458;7.046;2022-11-03T09:52:19;15.40;99.90
5796;DHT22;2924;51.458;7.046;2022-11-03T09:54:45;15.40;99.90
5796;DHT22;2924;51.458;7.046;2022-11-03T09:57:12;15.40;99.90
5796;DHT22;2924;51.458;7.046;2022-11-03T09:59:42;15.30;99.90
5796;DHT22;2924;51.458;7.046;2022-11-03T10:02:26;15.30;99.90
5796;DHT22;2924;51.458;7.046;2022-11-03T10:04:53;15.20;99.90
5796;DHT22;2924;51.458;7.046;2022-11-03T10:07:20;15.30;99.90
5796;DHT22;2924;51.458;7.046;2022-11-03T10:09:48;15.40;99.90
5796;DHT22;2924;51.458;7.046;2022-11-03T10:12:15;15.50;99.90
5796;DHT22;2924;51.458;7.046;2022-11-03T10:14:43;15.40;99.90
5796;DHT22;2924;51.458;7.046;2022-11-03T10:17:21;15.40;99.90
5796;DHT22;2924;51.458;7.046;2022-11-03T10:19:52;15.50;99.90
5796;DHT22;2924;51.458;7.046;2022-11-03T10:22:20;15.50;99.90
5796;DHT22;2924;51.458;7.046;2022-11-03T10:24:46;15.40;99.90
5796;DHT22;2924;51.458;7.046;2022-11-03T10:27:24;15.40;99.90
5796;DHT22;2924;51.458;7.046;2022-11-03T10:30:11;15.40;99.90
5796;DHT22;2924;51.458;7.046;2022-11-03T10:32:37;15.40;99.90
5796;DHT22;2924;51.458;7.046;2022-11-03T10:35:32;15.30;99.90
5796;DHT22;2924;51.458;7.046;2022-11-03T10:38:38;15.30;99.90
5796;DHT22;2924;51.458;7.046;2022-11-03T10:41:17;15.20;99.90
5796;DHT22;2924;51.458;7.046;2022-11-03T10:43:44;15.20;99.90
5796;DHT22;2924;51.458;7.046;2022-11-03T10:46:21;15.30;99.90
5796;DHT22;2924;51.458;7.046;2022-11-03T10:51:28;15.30;99.90
5796;DHT22;2924;51.458;7.046;2022-11-03T10:53:55;15.30;99.90
5796;DHT22;2924;51.458;7.046;2022-11-03T10:56:20;15.30;99.90
5796;DHT22;2924;51.458;7.046;2022-11-03T10:58:46;15.40;99.90
5796;DHT22;2924;51.458;7.046;2022-11-03T11:01:12;15.40;99.90
5796;DHT22;2924;51.458;7.046;2022-11-03T11:03:41;15.50;99.90
5796;DHT22;2924;51.458;7.046;2022-11-03T11:06:22;15.60;99.90
5796;DHT22;2924;51.458;7.046;2022-11-03T11:08:51;15.60;99.90
5796;DHT22;2924;51.458;7.046;2022-11-03T11:11:20;15.60;99.90
5796;DHT22;2924;51.458;7.046;2022-11-03T11:16:55;15.90;99.90
5796;DHT22;2924;51.458;7.046;2022-11-03T11:19:23;16.00;99.90
5796;DHT22;2924;51.458;7.046;2022-11-03T11:21:57;16.00;99.90
5796;DHT22;2924;51.458;7.046;2022-11-03T11:33:11;17.70;99.90
5796;DHT22;2924;51.458;7.046;2022-11-03T11:41:06;17.30;99.90
5796;DHT22;2924;51.458;7.046;2022-11-03T11:43:32;17.50;99.90
5796;DHT22;2924;51.458;7.046;2022-11-03T11:46:23;17.60;99.90
5796;DHT22;2924;51.458;7.046;2022-11-03T11:49:17;17.90;99.90
5796;DHT22;2924;51.458;7.046;2022-11-03T11:51:43;17.60;99.90
5796;DHT22;2924;51.458;7.046;2022-11-03T11:54:14;17.70;99.90
5796;DHT22;2924;51.458;7.046;2022-11-03T11:56:43;17.60;99.90
5796;DHT22;2924;51.458;7.046;2022-11-03T11:59:20;17.30;99.90
5796;DHT22;2924;51.458;7.046;2022-11-03T12:01:52;17.20;99.90
5796;DHT22;2924;51.458;7.046;2022-11-03T12:04:25;17.20;99.90
5796;DHT22;2924;51.458;7.046;2022-11-03T12:06:51;17.40;99.90
5796;DHT22;2924;51.458;7.046;2022-11-03T12:09:18;17.10;99.90
5796;DHT22;2924;51.458;7.046;2022-11-03T12:11:52;17.10;99.90
5796;DHT22;2924;51.458;7.046;2022-11-03T12:16:47;16.70;99.90
5796;DHT22;2924;51.458;7.046;2022-11-03T12:22:01;16.20;99.90
5796;DHT22;2924;51.458;7.046;2022-11-03T12:26:56;15.90;99.90
5796;DHT22;2924;51.458;7.046;2022-11-03T12:29:21;15.90;99.90
5796;DHT22;2924;51.458;7.046;2022-11-03T12:31:48;15.80;99.90
5796;DHT22;2924;51.458;7.046;2022-11-03T12:34:13;15.80;99.90
5796;DHT22;2924;51.458;7.046;2022-11-03T12:36:39;15.60;99.90
5796;DHT22;2924;51.458;7.046;2022-11-03T12:39:05;15.40;99.90
5796;DHT22;2924;51.458;7.046;2022-11-03T12:41:30;15.50;99.90
5796;DHT22;2924;51.458;7.046;2022-11-03T12:43:56;15.50;99.90
5796;DHT22;2924;51.458;7.046;2022-11-03T12:46:22;15.50;99.90
5796;DHT22;2924;51.458;7.046;2022-11-03T12:48:48;15.50;99.90
5796;DHT22;2924;51.458;7.046;2022-11-03T12:51:16;15.70;99.90
5796;DHT22;2924;51.458;7.046;2022-11-03T12:53:42;15.70;99.90
5796;DHT22;2924;51.458;7.046;2022-11-03T12:56:09;15.60;99.90
5796;DHT22;2924;51.458;7.046;2022-11-03T12:58:35;15.60;99.90
5796;DHT22;2924;51.458;7.046;2022-11-03T13:01:01;15.60;99.90
5796;DHT22;2924;51.458;7.046;2022-11-03T13:03:27;15.60;99.90
5796;DHT22;2924;51.458;7.046;2022-11-03T13:05:53;15.50;99.90
5796;DHT22;2924;51.458;7.046;2022-11-03T13:08:19;15.50;99.90
5796;DHT22;2924;51.458;7.046;2022-11-03T13:10:45;15.60;99.90
5796;DHT22;2924;51.458;7.046;2022-11-03T13:13:11;15.60;99.90
5796;DHT22;2924;51.458;7.046;2022-11-03T13:15:36;15.40;99.90
5796;DHT22;2924;51.458;7.046;2022-11-03T13:18:03;15.40;99.90
5796;DHT22;2924;51.458;7.046;2022-11-03T13:20:30;15.30;99.90
5796;DHT22;2924;51.458;7.046;2022-11-03T13:22:56;15.20;99.90
5796;DHT22;2924;51.458;7.046;2022-11-03T13:25:22;15.10;99.90
5796;DHT22;2924;51.458;7.046;2022-11-03T13:27:51;15.00;99.90
5796;DHT22;2924;51.458;7.046;2022-11-03T13:30:19;15.00;99.90
5796;DHT22;2924;51.458;7.046;2022-11-03T13:32:45;15.00;99.90
5796;DHT22;2924;51.458;7.046;2022-11-03T13:35:11;15.10;99.90
5796;DHT22;2924;51.458;7.046;2022-11-03T13:37:37;15.00;99.90
5796;DHT22;2924;51.458;7.046;2022-11-03T13:40:03;14.90;99.90
5796;DHT22;2924;51.458;7.046;2022-11-03T13:42:29;14.90;99.90
5796;DHT22;2924;51.458;7.046;2022-11-03T13:44:54;15.00;99.90
5796;DHT22;2924;51.458;7.046;2022-11-03T13:47:21;15.00;99.90
5796;DHT22;2924;51.458;7.046;2022-11-03T13:49:47;14.90;99.90
5796;DHT22;2924;51.458;7.046;2022-11-03T13:52:20;14.80;99.90
5796;DHT22;2924;51.458;7.046;2022-11-03T13:54:46;14.80;99.90
5796;DHT22;2924;51.458;7.046;2022-11-03T13:57:12;14.80;99.90
5796;DHT22;2924;51.458;7.046;2022-11-03T13:59:38;14.70;99.90
5796;DHT22;2924;51.458;7.046;2022-11-03T14:02:05;14.70;99.90
5796;DHT22;2924;51.458;7.046;2022-11-03T14:04:31;14.80;99.90
5796;DHT22;2924;51.458;7.046;2022-11-03T14:06:57;14.80;99.90
5796;DHT22;2924;51.458;7.046;2022-11-03T14:09:23;14.90;99.90
5796;DHT22;2924;51.458;7.046;2022-11-03T14:11:49;14.90;99.90
5796;DHT22;2924;51.458;7.046;2022-11-03T14:14:33;14.90;99.90
5796;DHT22;2924;51.458;7.046;2022-11-03T14:16:59;14.80;99.90
5796;DHT22;2924;51.458;7.046;2022-11-03T14:19:25;14.70;99.90
5796;DHT22;2924;51.458;7.046;2022-11-03T14:21:50;14.70;99.90
5796;DHT22;2924;51.458;7.046;2022-11-03T14:24:16;14.70;99.90
5796;DHT22;2924;51.458;7.046;2022-11-03T14:26:42;14.60;99.90
5796;DHT22;2924;51.458;7.046;2022-11-03T14:29:08;14.60;99.90
5796;DHT22;2924;51.458;7.046;2022-11-03T14:31:34;14.60;99.90
5796;DHT22;2924;51.458;7.046;2022-11-03T14:34:00;14.60;99.90
5796;DHT22;2924;51.458;7.046;2022-11-03T14:36:25;14.60;99.90
5796;DHT22;2924;51.458;7.046;2022-11-03T14:38:51;14.60;99.90
5796;DHT22;2924;51.458;7.046;2022-11-03T14:41:17;14.50;99.90
5796;DHT22;2924;51.458;7.046;2022-11-03T14:44:01;14.60;99.90
5796;DHT22;2924;51.458;7.046;2022-11-03T14:46:31;14.50;99.90
5796;DHT22;2924;51.458;7.046;2022-11-03T14:48:57;14.40;99.90
5796;DHT22;2924;51.458;7.046;2022-11-03T14:51:22;14.40;99.90
5796;DHT22;2924;51.458;7.046;2022-11-03T14:53:48;14.20;99.90
5796;DHT22;2924;51.458;7.046;2022-11-03T14:56:14;14.10;99.90
5796;DHT22;2924;51.458;7.046;2022-11-03T14:58:39;14.00;99.90
5796;DHT22;2924;51.458;7.046;2022-11-03T15:01:05;13.90;99.90
5796;DHT22;2924;51.458;7.046;2022-11-03T15:03:31;13.90;99.90
5796;DHT22;2924;51.458;7.046;2022-11-03T15:05:56;13.90;99.90
5796;DHT22;2924;51.458;7.046;2022-11-03T15:08:23;13.80;99.90
5796;DHT22;2924;51.458;7.046;2022-11-03T15:10:49;13.70;99.90
5796;DHT22;2924;51.458;7.046;2022-11-03T15:13:15;13.50;99.90
5796;DHT22;2924;51.458;7.046;2022-11-03T15:15:41;13.40;99.90
5796;DHT22;2924;51.458;7.046;2022-11-03T15:18:08;13.30;99.90
5796;DHT22;2924;51.458;7.046;2022-11-03T15:20:33;13.30;99.90
5796;DHT22;2924;51.458;7.046;2022-11-03T15:23:01;13.20;99.90
5796;DHT22;2924;51.458;7.046;2022-11-03T15:25:27;13.30;99.90
5796;DHT22;2924;51.458;7.046;2022-11-03T15:27:53;13.40;99.90
5796;DHT22;2924;51.458;7.046;2022-11-03T15:30:19;13.40;99.90
5796;DHT22;2924;51.458;7.046;2022-11-03T15:32:45;13.30;99.90
5796;DHT22;2924;51.458;7.046;2022-11-03T15:35:11;13.20;99.90
5796;DHT22;2924;51.458;7.046;2022-11-03T15:37:36;13.00;99.90
5796;DHT22;2924;51.458;7.046;2022-11-03T15:40:03;12.90;99.90
5796;DHT22;2924;51.458;7.046;2022-11-03T15:42:28;12.80;99.90
5796;DHT22;2924;51.458;7.046;2022-11-03T15:44:54;12.60;99.90
5796;DHT22;2924;51.458;7.046;2022-11-03T15:47:19;12.30;99.90
5796;DHT22;2924;51.458;7.046;2022-11-03T15:49:45;12.10;99.90
5796;DHT22;2924;51.458;7.046;2022-11-03T15:52:11;11.80;99.90
5796;DHT22;2924;51.458;7.046;2022-11-03T15:54:37;11.60;99.90
5796;DHT22;2924;51.458;7.046;2022-11-03T15:57:02;11.50;99.90
5796;DHT22;2924;51.458;7.046;2022-11-03T15:59:28;11.40;99.90
5796;DHT22;2924;51.458;7.046;2022-11-03T16:01:54;11.40;99.90
5796;DHT22;2924;51.458;7.046;2022-11-03T16:04:19;11.40;99.90
5796;DHT22;2924;51.458;7.046;2022-11-03T16:06:45;11.20;99.90
5796;DHT22;2924;51.458;7.046;2022-11-03T16:09:11;11.20;99.90
5796;DHT22;2924;51.458;7.046;2022-11-03T16:11:37;11.30;99.90
5796;DHT22;2924;51.458;7.046;2022-11-03T16:14:02;11.20;99.90
5796;DHT22;2924;51.458;7.046;2022-11-03T16:16:28;11.20;99.90
5796;DHT22;2924;51.458;7.046;2022-11-03T16:18:54;11.20;99.90
5796;DHT22;2924;51.458;7.046;2022-11-03T16:21:19;11.20;99.90
5796;DHT22;2924;51.458;7.046;2022-11-03T16:23:45;11.10;99.90
5796;DHT22;2924;51.458;7.046;2022-11-03T16:26:11;11.00;99.90
5796;DHT22;2924;51.458;7.046;2022-11-03T16:28:36;11.00;99.90
5796;DHT22;2924;51.458;7.046;2022-11-03T16:31:02;10.90;99.90
5796;DHT22;2924;51.458;7.046;2022-11-03T16:33:28;11.00;99.90
5796;DHT22;2924;51.458;7.046;2022-11-03T16:35:53;10.90;99.90
5796;DHT22;2924;51.458;7.046;2022-11-03T16:38:19;10.90;99.90
5796;DHT22;2924;51.458;7.046;2022-11-03T16:40:44;10.80;99.90
5796;DHT22;2924;51.458;7.046;2022-11-03T16:43:10;10.90;99.90
5796;DHT22;2924;51.458;7.046;2022-11-03T16:45:36;10.90;99.90
5796;DHT22;2924;51.458;7.046;2022-11-03T16:48:02;10.90;99.90
5796;DHT22;2924;51.458;7.046;2022-11-03T16:50:28;10.90;99.90
5796;DHT22;2924;51.458;7.046;2022-11-03T16:52:53;11.00;99.90
5796;DHT22;2924;51.458;7.046;2022-11-03T16:55:19;11.00;99.90
5796;DHT22;2924;51.458;7.046;2022-11-03T16:57:45;11.00;99.90
5796;DHT22;2924;51.458;7.046;2022-11-03T17:00:16;10.90;99.90
5796;DHT22;2924;51.458;7.046;2022-11-03T17:02:42;10.90;99.90
5796;DHT22;2924;51.458;7.046;2022-11-03T17:05:09;11.00;99.90